sensor_id;sensor_type;location;lat;lon;timestamp;P1;P2;P0
50866;PMS7003;36839;51.946;21.002;2023-03-14T00:01:16;19.50;16.00;12.50
50866;PMS7003;36839;51.946;21.002;2023-03-14T00:03:46;23.50;20.50;14.50
50866;PMS7003;36839;51.946;21.002;2023-03-14T00:06:15;15.00;13.00;10.00
50866;PMS7003;36839;51.946;21.002;2023-03-14T00:08:45;31.00;21.00;14.00
50866;PMS7003;36839;51.946;21.002;2023-03-14T00:11:22;20.00;16.00;12.00
50866;PMS7003;36839;51.946;21.002;2023-03-14T00:13:50;16.50;16.50;13.50
50866;PMS7003;36839;51.946;21.002;2023-03-14T00:16:17;19.00;14.00;12.00
50866;PMS7003;36839;51.946;21.002;2023-03-14T00:19:05;20.50;17.50;12.50
50866;PMS7003;36839;51.946;21.002;2023-03-14T00:21:33;18.00;17.50;12.50
50866;PMS7003;36839;51.946;21.002;2023-03-14T00:24:05;22.50;20.00;14.00
50866;PMS7003;36839;51.946;21.002;2023-03-14T00:26:32;23.33;19.00;13.00
50866;PMS7003;36839;51.946;21.002;2023-03-14T00:29:01;21.50;18.50;13.00
50866;PMS7003;36839;51.946;21.002;2023-03-14T00:31:29;16.00;11.00;4.00
50866;PMS7003;36839;51.946;21.002;2023-03-14T00:33:56;22.00;16.00;13.00
50866;PMS7003;36839;51.946;21.002;2023-03-14T00:36:25;21.00;18.00;13.00
50866;PMS7003;36839;51.946;21.002;2023-03-14T00:38:54;22.33;19.00;13.67
50866;PMS7003;36839;51.946;21.002;2023-03-14T00:41:22;20.50;17.00;12.00
50866;PMS7003;36839;51.946;21.002;2023-03-14T00:43:50;25.50;20.00;14.00
50866;PMS7003;36839;51.946;21.002;2023-03-14T00:46:17;18.00;16.50;12.50
50866;PMS7003;36839;51.946;21.002;2023-03-14T00:48:46;14.50;14.50;12.50
50866;PMS7003;36839;51.946;21.002;2023-03-14T00:51:14;22.00;18.00;12.00
50866;PMS7003;36839;51.946;21.002;2023-03-14T00:53:44;14.00;13.50;10.00
50866;PMS7003;36839;51.946;21.002;2023-03-14T00:56:13;17.00;15.50;12.50
50866;PMS7003;36839;51.946;21.002;2023-03-14T00:58:43;21.00;18.00;12.00
50866;PMS7003;36839;51.946;21.002;2023-03-14T01:01:15;21.00;15.50;11.50
50866;PMS7003;36839;51.946;21.002;2023-03-14T01:03:45;19.50;17.50;12.50
50866;PMS7003;36839;51.946;21.002;2023-03-14T01:06:17;21.50;19.50;14.00
50866;PMS7003;36839;51.946;21.002;2023-03-14T01:08:49;21.00;20.00;14.00
50866;PMS7003;36839;51.946;21.002;2023-03-14T01:11:24;23.00;20.00;15.00
50866;PMS7003;36839;51.946;21.002;2023-03-14T01:13:53;18.50;17.00;13.00
50866;PMS7003;36839;51.946;21.002;2023-03-14T01:16:33;18.50;17.00;12.50
50866;PMS7003;36839;51.946;21.002;2023-03-14T01:19:03;19.00;17.00;14.00
50866;PMS7003;36839;51.946;21.002;2023-03-14T01:21:43;16.50;14.00;11.00
50866;PMS7003;36839;51.946;21.002;2023-03-14T01:24:13;21.00;19.00;14.00
50866;PMS7003;36839;51.946;21.002;2023-03-14T01:26:41;18.00;18.00;13.00
50866;PMS7003;36839;51.946;21.002;2023-03-14T01:29:11;21.00;17.00;13.00
50866;PMS7003;36839;51.946;21.002;2023-03-14T01:31:38;17.00;14.00;12.00
50866;PMS7003;36839;51.946;21.002;2023-03-14T01:34:04;19.00;14.00;11.00
50866;PMS7003;36839;51.946;21.002;2023-03-14T01:36:31;17.00;17.00;12.00
50866;PMS7003;36839;51.946;21.002;2023-03-14T01:38:57;17.00;15.00;11.00
50866;PMS7003;36839;51.946;21.002;2023-03-14T01:41:24;17.00;16.00;11.00
50866;PMS7003;36839;51.946;21.002;2023-03-14T01:44:03;17.50;14.00;11.00
50866;PMS7003;36839;51.946;21.002;2023-03-14T01:51:56;18.50;14.50;11.50
50866;PMS7003;36839;51.946;21.002;2023-03-14T01:54:27;16.00;14.33;12.00
50866;PMS7003;36839;51.946;21.002;2023-03-14T01:59:55;19.00;17.50;12.00
50866;PMS7003;36839;51.946;21.002;2023-03-14T02:02:39;16.00;16.00;11.00
50866;PMS7003;36839;51.946;21.002;2023-03-14T02:05:09;19.00;17.00;13.00
50866;PMS7003;36839;51.946;21.002;2023-03-14T02:07:40;15.00;15.00;12.00
50866;PMS7003;36839;51.946;21.002;2023-03-14T02:10:20;15.00;14.00;10.00
50866;PMS7003;36839;51.946;21.002;2023-03-14T02:12:49;19.00;14.00;12.00
50866;PMS7003;36839;51.946;21.002;2023-03-14T02:15:18;16.00;12.00;10.00
50866;PMS7003;36839;51.946;21.002;2023-03-14T02:17:47;17.33;14.33;10.67
50866;PMS7003;36839;51.946;21.002;2023-03-14T02:20:23;16.00;15.00;12.00
50866;PMS7003;36839;51.946;21.002;2023-03-14T02:22:52;16.00;14.00;12.00
50866;PMS7003;36839;51.946;21.002;2023-03-14T02:28:00;16.00;11.00;8.00
50866;PMS7003;36839;51.946;21.002;2023-03-14T02:30:29;18.00;16.00;10.00
50866;PMS7003;36839;51.946;21.002;2023-03-14T02:35:37;14.00;11.00;9.00
50866;PMS7003;36839;51.946;21.002;2023-03-14T02:38:27;11.00;11.00;9.00
50866;PMS7003;36839;51.946;21.002;2023-03-14T02:41:11;13.00;13.00;9.00
50866;PMS7003;36839;51.946;21.002;2023-03-14T02:43:39;11.00;10.00;7.00
50866;PMS7003;36839;51.946;21.002;2023-03-14T02:48:38;13.00;11.00;9.00
50866;PMS7003;36839;51.946;21.002;2023-03-14T02:51:09;11.50;11.50;9.00
50866;PMS7003;36839;51.946;21.002;2023-03-14T02:53:39;11.50;11.50;10.50
50866;PMS7003;36839;51.946;21.002;2023-03-14T02:56:07;15.00;13.00;10.00
50866;PMS7003;36839;51.946;21.002;2023-03-14T02:58:38;12.50;10.00;9.00
50866;PMS7003;36839;51.946;21.002;2023-03-14T03:01:06;9.00;9.00;8.00
50866;PMS7003;36839;51.946;21.002;2023-03-14T03:03:34;11.00;9.00;8.00
50866;PMS7003;36839;51.946;21.002;2023-03-14T03:06:04;11.33;11.33;9.33
50866;PMS7003;36839;51.946;21.002;2023-03-14T03:08:39;16.50;14.50;10.50
50866;PMS7003;36839;51.946;21.002;2023-03-14T03:11:12;16.00;12.00;9.00
50866;PMS7003;36839;51.946;21.002;2023-03-14T03:13:38;15.00;11.00;8.00
50866;PMS7003;36839;51.946;21.002;2023-03-14T03:16:05;10.00;10.00;7.00
50866;PMS7003;36839;51.946;21.002;2023-03-14T03:18:32;13.00;13.00;10.00
50866;PMS7003;36839;51.946;21.002;2023-03-14T03:21:02;12.50;11.50;8.50
50866;PMS7003;36839;51.946;21.002;2023-03-14T03:23:35;12.50;12.00;10.00
50866;PMS7003;36839;51.946;21.002;2023-03-14T03:26:03;16.50;13.50;9.00
50866;PMS7003;36839;51.946;21.002;2023-03-14T03:28:30;14.50;12.50;10.00
50866;PMS7003;36839;51.946;21.002;2023-03-14T03:30:57;11.50;11.00;9.50
50866;PMS7003;36839;51.946;21.002;2023-03-14T03:33:23;19.50;15.50;11.50
50866;PMS7003;36839;51.946;21.002;2023-03-14T03:35:52;15.50;13.00;9.50
50866;PMS7003;36839;51.946;21.002;2023-03-14T03:38:19;12.00;12.00;10.00
50866;PMS7003;36839;51.946;21.002;2023-03-14T03:40:46;13.00;11.50;9.50
50866;PMS7003;36839;51.946;21.002;2023-03-14T03:43:13;7.67;7.33;5.67
50866;PMS7003;36839;51.946;21.002;2023-03-14T03:45:42;15.00;12.00;9.00
50866;PMS7003;36839;51.946;21.002;2023-03-14T03:48:11;15.00;10.00;10.00
50866;PMS7003;36839;51.946;21.002;2023-03-14T03:50:45;11.00;8.00;6.00
50866;PMS7003;36839;51.946;21.002;2023-03-14T03:53:21;10.50;9.50;6.50
50866;PMS7003;36839;51.946;21.002;2023-03-14T03:55:57;7.50;5.50;4.00
50866;PMS7003;36839;51.946;21.002;2023-03-14T03:58:24;12.33;11.00;9.00
50866;PMS7003;36839;51.946;21.002;2023-03-14T04:00:51;13.00;11.50;9.00
50866;PMS7003;36839;51.946;21.002;2023-03-14T04:03:20;11.00;10.00;9.00
50866;PMS7003;36839;51.946;21.002;2023-03-14T04:05:57;18.00;10.00;8.50
50866;PMS7003;36839;51.946;21.002;2023-03-14T04:08:40;11.00;9.00;8.00
50866;PMS7003;36839;51.946;21.002;2023-03-14T04:11:07;10.00;10.00;8.00
50866;PMS7003;36839;51.946;21.002;2023-03-14T04:13:40;13.50;10.00;7.00
50866;PMS7003;36839;51.946;21.002;2023-03-14T04:16:13;12.00;12.00;9.00
50866;PMS7003;36839;51.946;21.002;2023-03-14T04:18:52;15.00;11.00;8.00
50866;PMS7003;36839;51.946;21.002;2023-03-14T04:21:20;11.00;10.50;8.50
50866;PMS7003;36839;51.946;21.002;2023-03-14T04:23:51;10.50;10.50;9.00
50866;PMS7003;36839;51.946;21.002;2023-03-14T04:26:20;11.50;10.00;7.50
50866;PMS7003;36839;51.946;21.002;2023-03-14T04:28:47;9.00;9.00;8.00
50866;PMS7003;36839;51.946;21.002;2023-03-14T04:31:17;15.50;9.00;6.50
50866;PMS7003;36839;51.946;21.002;2023-03-14T04:33:47;14.00;10.00;8.00
50866;PMS7003;36839;51.946;21.002;2023-03-14T04:36:17;16.00;16.00;11.00
50866;PMS7003;36839;51.946;21.002;2023-03-14T04:38:45;29.50;22.00;16.00
50866;PMS7003;36839;51.946;21.002;2023-03-14T04:41:11;12.50;10.50;8.00
50866;PMS7003;36839;51.946;21.002;2023-03-14T04:43:43;9.50;9.00;7.00
50866;PMS7003;36839;51.946;21.002;2023-03-14T04:46:09;21.00;20.50;17.50
50866;PMS7003;36839;51.946;21.002;2023-03-14T04:48:38;15.50;15.00;11.50
50866;PMS7003;36839;51.946;21.002;2023-03-14T04:51:08;12.00;12.00;10.00
50866;PMS7003;36839;51.946;21.002;2023-03-14T04:53:35;19.00;12.00;9.00
50866;PMS7003;36839;51.946;21.002;2023-03-14T04:56:04;10.00;10.00;8.00
50866;PMS7003;36839;51.946;21.002;2023-03-14T04:58:32;12.00;10.00;8.00
50866;PMS7003;36839;51.946;21.002;2023-03-14T05:01:03;11.00;11.00;9.00
50866;PMS7003;36839;51.946;21.002;2023-03-14T05:03:36;12.00;11.00;9.00
50866;PMS7003;36839;51.946;21.002;2023-03-14T05:06:05;16.00;11.50;8.50
50866;PMS7003;36839;51.946;21.002;2023-03-14T05:08:32;14.00;10.00;9.00
50866;PMS7003;36839;51.946;21.002;2023-03-14T05:10:59;16.00;11.00;9.00
50866;PMS7003;36839;51.946;21.002;2023-03-14T05:13:26;8.33;8.33;7.00
50866;PMS7003;36839;51.946;21.002;2023-03-14T05:15:52;14.67;11.33;9.00
50866;PMS7003;36839;51.946;21.002;2023-03-14T05:18:19;12.00;11.00;9.00
50866;PMS7003;36839;51.946;21.002;2023-03-14T05:20:46;12.00;12.00;10.00
50866;PMS7003;36839;51.946;21.002;2023-03-14T05:23:18;12.50;11.50;9.00
50866;PMS7003;36839;51.946;21.002;2023-03-14T05:25:46;16.00;11.00;9.00
50866;PMS7003;36839;51.946;21.002;2023-03-14T05:28:15;11.50;10.00;8.50
50866;PMS7003;36839;51.946;21.002;2023-03-14T05:30:43;12.33;7.67;5.67
50866;PMS7003;36839;51.946;21.002;2023-03-14T05:33:10;10.00;10.00;8.00
50866;PMS7003;36839;51.946;21.002;2023-03-14T05:35:38;11.00;9.50;7.00
50866;PMS7003;36839;51.946;21.002;2023-03-14T05:38:05;11.00;11.00;9.00
50866;PMS7003;36839;51.946;21.002;2023-03-14T05:40:33;16.00;11.00;10.00
50866;PMS7003;36839;51.946;21.002;2023-03-14T05:43:03;11.50;11.00;9.50
50866;PMS7003;36839;51.946;21.002;2023-03-14T05:45:31;13.00;13.00;10.00
50866;PMS7003;36839;51.946;21.002;2023-03-14T05:50:28;12.00;12.00;10.00
50866;PMS7003;36839;51.946;21.002;2023-03-14T05:52:57;16.00;11.00;9.00
50866;PMS7003;36839;51.946;21.002;2023-03-14T05:55:24;15.00;11.00;8.00
50866;PMS7003;36839;51.946;21.002;2023-03-14T05:57:54;15.50;13.00;9.50
50866;PMS7003;36839;51.946;21.002;2023-03-14T06:00:21;24.00;23.00;15.00
50866;PMS7003;36839;51.946;21.002;2023-03-14T06:02:48;16.00;15.00;11.00
50866;PMS7003;36839;51.946;21.002;2023-03-14T06:05:15;16.50;16.00;12.00
50866;PMS7003;36839;51.946;21.002;2023-03-14T06:07:42;17.00;11.00;9.00
50866;PMS7003;36839;51.946;21.002;2023-03-14T06:10:13;14.00;12.00;9.00
50866;PMS7003;36839;51.946;21.002;2023-03-14T06:12:41;9.50;9.50;7.00
50866;PMS7003;36839;51.946;21.002;2023-03-14T06:15:08;13.00;13.00;11.00
50866;PMS7003;36839;51.946;21.002;2023-03-14T06:17:38;11.00;11.00;10.00
50866;PMS7003;36839;51.946;21.002;2023-03-14T06:20:07;14.00;11.00;9.00
50866;PMS7003;36839;51.946;21.002;2023-03-14T06:22:38;10.00;10.00;7.50
50866;PMS7003;36839;51.946;21.002;2023-03-14T06:25:15;16.50;9.00;6.00
50866;PMS7003;36839;51.946;21.002;2023-03-14T06:27:45;13.00;12.00;9.00
50866;PMS7003;36839;51.946;21.002;2023-03-14T06:30:18;8.00;8.00;6.00
50866;PMS7003;36839;51.946;21.002;2023-03-14T06:32:47;15.00;13.00;9.50
50866;PMS7003;36839;51.946;21.002;2023-03-14T06:35:13;13.00;13.00;9.00
50866;PMS7003;36839;51.946;21.002;2023-03-14T06:37:42;12.50;12.50;10.50
50866;PMS7003;36839;51.946;21.002;2023-03-14T06:42:43;14.00;13.50;12.00
50866;PMS7003;36839;51.946;21.002;2023-03-14T06:45:14;13.00;11.00;8.00
50866;PMS7003;36839;51.946;21.002;2023-03-14T06:47:43;14.00;14.00;11.00
50866;PMS7003;36839;51.946;21.002;2023-03-14T06:50:14;13.00;12.00;8.00
50866;PMS7003;36839;51.946;21.002;2023-03-14T06:52:45;13.00;13.00;11.00
50866;PMS7003;36839;51.946;21.002;2023-03-14T06:55:15;15.00;14.00;12.50
50866;PMS7003;36839;51.946;21.002;2023-03-14T06:57:43;17.00;13.00;9.00
50866;PMS7003;36839;51.946;21.002;2023-03-14T07:00:13;11.00;11.00;8.50
50866;PMS7003;36839;51.946;21.002;2023-03-14T07:02:42;11.00;9.00;8.00
50866;PMS7003;36839;51.946;21.002;2023-03-14T07:05:11;13.00;13.00;9.00
50866;PMS7003;36839;51.946;21.002;2023-03-14T07:07:40;16.00;10.00;7.00
50866;PMS7003;36839;51.946;21.002;2023-03-14T07:10:06;14.00;11.00;8.00
50866;PMS7003;36839;51.946;21.002;2023-03-14T07:12:34;13.50;11.00;9.00
50866;PMS7003;36839;51.946;21.002;2023-03-14T07:15:02;12.67;11.00;8.00
50866;PMS7003;36839;51.946;21.002;2023-03-14T07:17:29;14.00;14.00;10.00
50866;PMS7003;36839;51.946;21.002;2023-03-14T07:19:56;14.00;11.00;9.00
50866;PMS7003;36839;51.946;21.002;2023-03-14T07:22:23;10.50;9.50;8.50
50866;PMS7003;36839;51.946;21.002;2023-03-14T07:24:51;11.50;10.00;9.50
50866;PMS7003;36839;51.946;21.002;2023-03-14T07:27:22;13.00;11.00;9.00
50866;PMS7003;36839;51.946;21.002;2023-03-14T07:29:50;10.00;10.00;8.00
50866;PMS7003;36839;51.946;21.002;2023-03-14T07:32:18;14.00;12.00;9.00
50866;PMS7003;36839;51.946;21.002;2023-03-14T07:34:45;12.00;11.00;8.00
50866;PMS7003;36839;51.946;21.002;2023-03-14T07:37:17;16.00;14.00;11.00
50866;PMS7003;36839;51.946;21.002;2023-03-14T07:39:47;8.00;8.00;7.00
50866;PMS7003;36839;51.946;21.002;2023-03-14T07:42:16;13.33;11.33;10.67
50866;PMS7003;36839;51.946;21.002;2023-03-14T07:44:43;12.00;12.00;10.00
50866;PMS7003;36839;51.946;21.002;2023-03-14T07:47:14;13.00;11.00;8.00
50866;PMS7003;36839;51.946;21.002;2023-03-14T07:49:48;16.00;13.00;10.00
50866;PMS7003;36839;51.946;21.002;2023-03-14T07:52:15;11.50;11.00;9.50
50866;PMS7003;36839;51.946;21.002;2023-03-14T07:54:43;11.00;10.00;7.00
50866;PMS7003;36839;51.946;21.002;2023-03-14T07:57:13;10.00;8.00;7.00
50866;PMS7003;36839;51.946;21.002;2023-03-14T07:59:43;11.00;11.00;8.50
50866;PMS7003;36839;51.946;21.002;2023-03-14T08:02:12;16.00;12.00;9.00
50866;PMS7003;36839;51.946;21.002;2023-03-14T08:04:41;11.00;11.00;8.50
50866;PMS7003;36839;51.946;21.002;2023-03-14T08:07:10;10.00;10.00;8.00
50866;PMS7003;36839;51.946;21.002;2023-03-14T08:09:37;11.00;11.00;9.00
50866;PMS7003;36839;51.946;21.002;2023-03-14T08:12:04;12.00;11.50;10.00
50866;PMS7003;36839;51.946;21.002;2023-03-14T08:14:31;13.00;13.00;10.00
50866;PMS7003;36839;51.946;21.002;2023-03-14T08:16:59;13.00;10.00;8.00
50866;PMS7003;36839;51.946;21.002;2023-03-14T08:19:26;13.00;10.00;9.00
50866;PMS7003;36839;51.946;21.002;2023-03-14T08:21:53;11.50;11.00;9.00
50866;PMS7003;36839;51.946;21.002;2023-03-14T08:24:21;13.00;10.00;9.00
50866;PMS7003;36839;51.946;21.002;2023-03-14T08:26:47;13.00;11.50;9.50
50866;PMS7003;36839;51.946;21.002;2023-03-14T08:29:13;11.00;9.00;8.00
50866;PMS7003;36839;51.946;21.002;2023-03-14T08:31:40;14.00;12.00;9.00
50866;PMS7003;36839;51.946;21.002;2023-03-14T08:34:08;14.50;11.00;9.00
50866;PMS7003;36839;51.946;21.002;2023-03-14T08:36:34;11.00;11.00;7.50
50866;PMS7003;36839;51.946;21.002;2023-03-14T08:39:01;12.00;11.00;8.00
50866;PMS7003;36839;51.946;21.002;2023-03-14T08:41:34;12.00;12.00;8.00
50866;PMS7003;36839;51.946;21.002;2023-03-14T08:44:07;11.00;9.50;8.50
50866;PMS7003;36839;51.946;21.002;2023-03-14T08:46:36;7.00;7.00;6.00
50866;PMS7003;36839;51.946;21.002;2023-03-14T08:49:05;10.00;9.00;7.00
50866;PMS7003;36839;51.946;21.002;2023-03-14T08:51:31;12.00;11.00;9.00
50866;PMS7003;36839;51.946;21.002;2023-03-14T08:53:58;10.00;9.00;7.00
50866;PMS7003;36839;51.946;21.002;2023-03-14T08:56:31;11.00;9.50;8.50
50866;PMS7003;36839;51.946;21.002;2023-03-14T08:58:58;12.00;10.00;8.50
50866;PMS7003;36839;51.946;21.002;2023-03-14T09:01:26;9.00;8.00;6.00
50866;PMS7003;36839;51.946;21.002;2023-03-14T09:03:55;12.00;9.00;8.00
50866;PMS7003;36839;51.946;21.002;2023-03-14T09:06:26;10.00;8.50;7.00
50866;PMS7003;36839;51.946;21.002;2023-03-14T09:08:55;9.00;7.50;6.00
50866;PMS7003;36839;51.946;21.002;2023-03-14T09:11:24;7.00;7.00;7.00
50866;PMS7003;36839;51.946;21.002;2023-03-14T09:13:52;13.00;10.00;8.00
50866;PMS7003;36839;51.946;21.002;2023-03-14T09:16:19;10.00;10.00;8.00
50866;PMS7003;36839;51.946;21.002;2023-03-14T09:18:50;11.00;10.00;9.00
50866;PMS7003;36839;51.946;21.002;2023-03-14T09:21:23;11.50;10.00;8.00
50866;PMS7003;36839;51.946;21.002;2023-03-14T09:23:53;10.50;9.00;8.00
50866;PMS7003;36839;51.946;21.002;2023-03-14T09:26:20;12.00;10.00;9.00
50866;PMS7003;36839;51.946;21.002;2023-03-14T09:28:49;10.00;7.00;5.50
50866;PMS7003;36839;51.946;21.002;2023-03-14T09:31:28;11.33;10.00;8.00
50866;PMS7003;36839;51.946;21.002;2023-03-14T09:33:56;9.00;9.00;8.00
50866;PMS7003;36839;51.946;21.002;2023-03-14T09:36:26;14.50;11.00;9.00
50866;PMS7003;36839;51.946;21.002;2023-03-14T09:38:54;10.00;9.00;7.00
50866;PMS7003;36839;51.946;21.002;2023-03-14T09:41:27;9.50;9.50;8.00
50866;PMS7003;36839;51.946;21.002;2023-03-14T09:44:16;9.00;9.00;7.00
50866;PMS7003;36839;51.946;21.002;2023-03-14T09:46:50;15.00;10.00;8.00
50866;PMS7003;36839;51.946;21.002;2023-03-14T09:49:22;10.33;8.33;6.33
50866;PMS7003;36839;51.946;21.002;2023-03-14T09:51:56;15.00;9.50;6.50
50866;PMS7003;36839;51.946;21.002;2023-03-14T09:57:30;10.00;7.00;6.00
50866;PMS7003;36839;51.946;21.002;2023-03-14T10:00:06;15.50;8.50;6.50
50866;PMS7003;36839;51.946;21.002;2023-03-14T10:02:42;11.00;11.00;8.00
50866;PMS7003;36839;51.946;21.002;2023-03-14T10:05:16;9.50;9.50;7.50
50866;PMS7003;36839;51.946;21.002;2023-03-14T10:07:46;6.00;6.00;4.00
50866;PMS7003;36839;51.946;21.002;2023-03-14T10:10:21;6.00;6.00;5.00
50866;PMS7003;36839;51.946;21.002;2023-03-14T10:12:58;8.00;7.00;5.00
50866;PMS7003;36839;51.946;21.002;2023-03-14T10:15:35;9.50;8.00;6.00
50866;PMS7003;36839;51.946;21.002;2023-03-14T10:18:10;6.50;6.50;5.50
50866;PMS7003;36839;51.946;21.002;2023-03-14T10:20:42;7.00;7.00;5.00
50866;PMS7003;36839;51.946;21.002;2023-03-14T10:29:01;9.00;7.00;5.50
50866;PMS7003;36839;51.946;21.002;2023-03-14T10:34:31;7.50;7.50;6.00
50866;PMS7003;36839;51.946;21.002;2023-03-14T10:37:16;5.50;5.50;4.50
50866;PMS7003;36839;51.946;21.002;2023-03-14T10:39:53;11.00;8.00;7.00
50866;PMS7003;36839;51.946;21.002;2023-03-14T10:42:25;14.00;9.00;5.00
50866;PMS7003;36839;51.946;21.002;2023-03-14T10:44:56;11.50;10.00;7.50
50866;PMS7003;36839;51.946;21.002;2023-03-14T10:47:26;10.50;10.50;8.50
50866;PMS7003;36839;51.946;21.002;2023-03-14T10:49:57;9.00;8.50;7.50
50866;PMS7003;36839;51.946;21.002;2023-03-14T10:52:56;8.00;8.00;6.00
50866;PMS7003;36839;51.946;21.002;2023-03-14T10:55:27;7.00;7.00;5.00
50866;PMS7003;36839;51.946;21.002;2023-03-14T10:57:54;7.00;7.00;6.00
50866;PMS7003;36839;51.946;21.002;2023-03-14T11:00:23;12.00;9.00;6.00
50866;PMS7003;36839;51.946;21.002;2023-03-14T11:08:36;7.50;6.00;5.50
50866;PMS7003;36839;51.946;21.002;2023-03-14T11:11:29;11.50;8.00;7.00
50866;PMS7003;36839;51.946;21.002;2023-03-14T11:22:14;12.00;7.50;5.00
50866;PMS7003;36839;51.946;21.002;2023-03-14T11:27:43;8.00;6.00;4.00
50866;PMS7003;36839;51.946;21.002;2023-03-14T11:46:28;12.00;12.00;9.00
50866;PMS7003;36839;51.946;21.002;2023-03-14T12:00:57;13.00;13.00;9.00
50866;PMS7003;36839;51.946;21.002;2023-03-14T12:03:39;12.00;9.00;7.00
50866;PMS7003;36839;51.946;21.002;2023-03-14T12:09:00;11.00;11.00;9.00
50866;PMS7003;36839;51.946;21.002;2023-03-14T12:14:22;19.00;16.00;13.00
50866;PMS7003;36839;51.946;21.002;2023-03-14T12:16:53;15.00;10.00;8.00
50866;PMS7003;36839;51.946;21.002;2023-03-14T12:24:59;15.00;12.00;10.00
50866;PMS7003;36839;51.946;21.002;2023-03-14T12:27:45;13.50;10.50;9.50
50866;PMS7003;36839;51.946;21.002;2023-03-14T12:30:34;13.00;11.00;8.00
50866;PMS7003;36839;51.946;21.002;2023-03-14T12:35:42;12.50;10.50;8.50
50866;PMS7003;36839;51.946;21.002;2023-03-14T12:38:16;17.00;14.00;9.00
50866;PMS7003;36839;51.946;21.002;2023-03-14T12:46:58;26.00;24.00;15.50
50866;PMS7003;36839;51.946;21.002;2023-03-14T12:49:30;22.00;18.50;11.50
50866;PMS7003;36839;51.946;21.002;2023-03-14T12:52:01;16.00;14.50;13.00
50866;PMS7003;36839;51.946;21.002;2023-03-14T12:57:33;20.00;16.00;11.00
50866;PMS7003;36839;51.946;21.002;2023-03-14T13:00:32;9.00;8.00;6.00
50866;PMS7003;36839;51.946;21.002;2023-03-14T13:03:02;11.00;10.00;10.00
50866;PMS7003;36839;51.946;21.002;2023-03-14T13:05:54;16.00;13.00;9.00
50866;PMS7003;36839;51.946;21.002;2023-03-14T13:08:32;14.50;13.50;10.50
50866;PMS7003;36839;51.946;21.002;2023-03-14T13:11:01;15.00;13.00;10.00
50866;PMS7003;36839;51.946;21.002;2023-03-14T13:13:33;10.00;10.00;8.00
50866;PMS7003;36839;51.946;21.002;2023-03-14T13:16:09;12.00;10.00;8.00
50866;PMS7003;36839;51.946;21.002;2023-03-14T13:18:48;21.00;19.00;14.00
50866;PMS7003;36839;51.946;21.002;2023-03-14T13:27:34;13.00;12.00;10.00
50866;PMS7003;36839;51.946;21.002;2023-03-14T13:32:55;16.50;14.00;10.50
50866;PMS7003;36839;51.946;21.002;2023-03-14T13:39:17;18.00;15.00;12.00
50866;PMS7003;36839;51.946;21.002;2023-03-14T13:41:58;25.00;22.00;18.00
50866;PMS7003;36839;51.946;21.002;2023-03-14T13:44:31;19.00;16.00;12.00
50866;PMS7003;36839;51.946;21.002;2023-03-14T13:47:03;15.67;13.33;10.00
50866;PMS7003;36839;51.946;21.002;2023-03-14T13:49:35;14.00;13.00;10.00
50866;PMS7003;36839;51.946;21.002;2023-03-14T13:52:03;16.50;14.50;11.50
50866;PMS7003;36839;51.946;21.002;2023-03-14T13:54:53;16.00;16.00;11.00
50866;PMS7003;36839;51.946;21.002;2023-03-14T13:57:22;17.00;17.00;12.00
50866;PMS7003;36839;51.946;21.002;2023-03-14T14:00:02;16.00;13.00;12.00
50866;PMS7003;36839;51.946;21.002;2023-03-14T14:02:37;13.00;13.00;12.00
50866;PMS7003;36839;51.946;21.002;2023-03-14T14:05:10;17.00;15.00;12.00
50866;PMS7003;36839;51.946;21.002;2023-03-14T14:07:43;16.00;15.50;11.50
50866;PMS7003;36839;51.946;21.002;2023-03-14T14:10:12;16.00;13.00;12.00
50866;PMS7003;36839;51.946;21.002;2023-03-14T14:12:41;14.00;14.00;10.00
50866;PMS7003;36839;51.946;21.002;2023-03-14T14:15:40;15.00;12.00;11.00
50866;PMS7003;36839;51.946;21.002;2023-03-14T14:18:12;14.00;13.00;10.50
50866;PMS7003;36839;51.946;21.002;2023-03-14T14:20:45;16.00;15.00;12.00
50866;PMS7003;36839;51.946;21.002;2023-03-14T14:26:13;13.67;13.67;11.00
50866;PMS7003;36839;51.946;21.002;2023-03-14T14:28:43;16.00;16.00;11.50
50866;PMS7003;36839;51.946;21.002;2023-03-14T14:31:22;21.00;18.00;12.00
50866;PMS7003;36839;51.946;21.002;2023-03-14T14:33:57;21.50;18.00;13.00
50866;PMS7003;36839;51.946;21.002;2023-03-14T14:39:21;23.00;17.00;13.00
50866;PMS7003;36839;51.946;21.002;2023-03-14T14:41:49;17.00;16.00;13.00
50866;PMS7003;36839;51.946;21.002;2023-03-14T14:44:36;15.00;15.00;10.50
50866;PMS7003;36839;51.946;21.002;2023-03-14T14:47:05;15.00;12.00;10.00
50866;PMS7003;36839;51.946;21.002;2023-03-14T14:49:32;20.00;17.00;14.00
50866;PMS7003;36839;51.946;21.002;2023-03-14T14:52:02;14.00;13.00;11.00
50866;PMS7003;36839;51.946;21.002;2023-03-14T14:57:04;16.00;15.00;12.00
50866;PMS7003;36839;51.946;21.002;2023-03-14T14:59:44;16.00;15.00;12.00
50866;PMS7003;36839;51.946;21.002;2023-03-14T15:05:30;17.50;13.50;10.00
50866;PMS7003;36839;51.946;21.002;2023-03-14T15:08:01;14.00;13.00;11.00
50866;PMS7003;36839;51.946;21.002;2023-03-14T15:10:31;18.00;16.50;12.00
50866;PMS7003;36839;51.946;21.002;2023-03-14T15:12:57;22.00;17.00;13.00
50866;PMS7003;36839;51.946;21.002;2023-03-14T15:15:26;16.00;14.00;11.00
50866;PMS7003;36839;51.946;21.002;2023-03-14T15:17:53;19.00;17.00;13.00
50866;PMS7003;36839;51.946;21.002;2023-03-14T15:20:24;16.50;16.50;12.00
50866;PMS7003;36839;51.946;21.002;2023-03-14T15:22:50;16.00;15.00;13.00
50866;PMS7003;36839;51.946;21.002;2023-03-14T15:25:30;22.00;19.00;14.00
50866;PMS7003;36839;51.946;21.002;2023-03-14T15:28:01;22.00;22.00;16.00
50866;PMS7003;36839;51.946;21.002;2023-03-14T15:32:59;22.00;20.00;14.00
50866;PMS7003;36839;51.946;21.002;2023-03-14T15:35:29;18.67;18.67;15.33
50866;PMS7003;36839;51.946;21.002;2023-03-14T15:37:57;22.00;18.00;15.00
50866;PMS7003;36839;51.946;21.002;2023-03-14T15:40:23;20.00;17.50;14.00
50866;PMS7003;36839;51.946;21.002;2023-03-14T15:42:55;26.00;22.50;17.00
50866;PMS7003;36839;51.946;21.002;2023-03-14T15:45:22;50.00;40.00;28.00
50866;PMS7003;36839;51.946;21.002;2023-03-14T15:47:52;40.50;35.00;25.00
50866;PMS7003;36839;51.946;21.002;2023-03-14T15:50:24;32.00;26.50;20.00
50866;PMS7003;36839;51.946;21.002;2023-03-14T15:52:52;27.00;22.00;17.00
50866;PMS7003;36839;51.946;21.002;2023-03-14T15:55:22;26.00;22.00;16.00
50866;PMS7003;36839;51.946;21.002;2023-03-14T15:57:49;22.00;20.00;15.00
50866;PMS7003;36839;51.946;21.002;2023-03-14T16:00:17;19.00;17.33;14.00
50866;PMS7003;36839;51.946;21.002;2023-03-14T16:02:47;18.00;18.00;15.00
50866;PMS7003;36839;51.946;21.002;2023-03-14T16:05:16;18.00;16.50;13.00
50866;PMS7003;36839;51.946;21.002;2023-03-14T16:07:47;19.00;19.00;14.50
50866;PMS7003;36839;51.946;21.002;2023-03-14T16:10:30;21.00;19.00;14.00
50866;PMS7003;36839;51.946;21.002;2023-03-14T16:12:59;16.00;16.00;12.00